createdAt,value
2022-08-26T00:01:59.213Z,82.97
2022-08-26T00:05:04.519Z,83.13
2022-08-26T00:08:08.408Z,83.12
2022-08-26T00:11:16.257Z,82.99
2022-08-26T00:14:30.927Z,83.23
2022-08-26T00:17:35.291Z,83.29
2022-08-26T00:20:39.611Z,83.20
2022-08-26T00:23:46.391Z,83.15
2022-08-26T00:26:50.171Z,83.24
2022-08-26T00:29:55.162Z,83.14
2022-08-26T00:33:00.492Z,83.09
2022-08-26T00:36:05.601Z,83.17
2022-08-26T00:39:09.101Z,83.25
2022-08-26T00:42:12.637Z,83.30
2022-08-26T00:45:17.486Z,83.28
2022-08-26T00:48:24.231Z,83.23
2022-08-26T00:51:29.538Z,83.36
2022-08-26T00:54:36.874Z,83.26
2022-08-26T00:57:40.274Z,83.35
2022-08-26T01:00:43.835Z,83.55
2022-08-26T01:03:48.595Z,83.50
2022-08-26T01:06:54.071Z,83.65
2022-08-26T01:09:59.581Z,83.85
2022-08-26T01:13:10.035Z,83.87
2022-08-26T01:16:17.002Z,83.68
2022-08-26T01:19:33.153Z,83.75
2022-08-26T01:23:06.424Z,83.77
2022-08-26T01:26:19.525Z,83.85
2022-08-26T01:29:24.434Z,83.94
2022-08-26T01:32:28.697Z,83.80
2022-08-26T01:35:31.889Z,83.86
2022-08-26T01:38:36.443Z,83.81
2022-08-26T01:41:40.785Z,83.64
2022-08-26T01:44:59.502Z,83.55
2022-08-26T01:48:11.142Z,83.60
2022-08-26T01:51:16.001Z,83.70
2022-08-26T01:54:20.594Z,83.76
2022-08-26T01:57:27.136Z,83.78
2022-08-26T02:00:30.319Z,83.58
2022-08-26T02:03:35.067Z,83.47
2022-08-26T02:06:42.781Z,83.61
2022-08-26T02:09:46.512Z,83.67
2022-08-26T02:12:49.494Z,83.67
2022-08-26T02:15:55.443Z,83.90
2022-08-26T02:19:00.637Z,83.74
2022-08-26T02:22:07.572Z,83.71
2022-08-26T02:25:28.363Z,83.93
2022-08-26T02:28:35.780Z,83.94
2022-08-26T02:31:38.871Z,83.91
2022-08-26T02:34:42.968Z,84.05
2022-08-26T02:37:46.955Z,83.94
2022-08-26T02:40:53.036Z,84.08
2022-08-26T02:43:56.121Z,83.88
2022-08-26T02:46:59.829Z,83.93
2022-08-26T02:50:02.848Z,84.12
2022-08-26T02:53:07.228Z,84.21
2022-08-26T02:56:10.811Z,84.19
2022-08-26T02:59:13.944Z,84.10
2022-08-26T03:02:17.414Z,84.09
2022-08-26T03:05:23.953Z,84.15
2022-08-26T03:08:27.441Z,84.28
2022-08-26T03:11:33.232Z,84.34
2022-08-26T03:14:36.506Z,84.33
2022-08-26T03:17:39.714Z,83.89
2022-08-26T03:20:43.987Z,83.78
2022-08-26T03:23:47.955Z,83.93
2022-08-26T03:26:52.081Z,83.85
2022-08-26T03:30:14.790Z,83.97
2022-08-26T03:33:18.116Z,83.81
2022-08-26T03:36:22.251Z,83.57
2022-08-26T03:39:25.542Z,83.74
2022-08-26T03:42:29.161Z,83.78
2022-08-26T03:45:32.267Z,83.73
2022-08-26T03:48:35.976Z,84.18
2022-08-26T03:51:39.136Z,84.12
2022-08-26T03:54:42.298Z,84.35
2022-08-26T03:57:46.549Z,84.42
2022-08-26T04:00:55.361Z,84.44
2022-08-26T04:04:00.193Z,84.51
2022-08-26T04:07:04.418Z,84.66
2022-08-26T04:10:08.922Z,84.89
2022-08-26T04:13:13.031Z,84.85
2022-08-26T04:16:17.732Z,84.88
2022-08-26T04:19:21.661Z,84.80
2022-08-26T04:22:25.180Z,84.95
2022-08-26T04:25:28.479Z,84.95
2022-08-26T04:28:32.243Z,84.88
2022-08-26T04:31:36.901Z,84.81
2022-08-26T04:34:40.163Z,84.74
2022-08-26T04:37:44.301Z,84.77
2022-08-26T04:40:47.483Z,84.82
2022-08-26T04:43:50.665Z,84.99
2022-08-26T04:46:54.869Z,84.90
2022-08-26T04:49:59.101Z,84.62
2022-08-26T04:53:02.500Z,84.41
2022-08-26T04:56:08.916Z,84.38
2022-08-26T04:59:17.043Z,84.26
2022-08-26T05:02:21.409Z,84.22
2022-08-26T05:05:24.509Z,84.21
2022-08-26T05:08:27.861Z,84.15
2022-08-26T05:11:31.127Z,83.85
2022-08-26T05:14:34.402Z,83.40
2022-08-26T05:17:38.406Z,83.28
2022-08-26T05:20:46.841Z,83.38
2022-08-26T05:24:01.242Z,83.40
2022-08-26T05:27:07.450Z,83.13
2022-08-26T05:30:14.949Z,83.04
2022-08-26T05:33:19.758Z,82.59
2022-08-26T05:36:26.999Z,82.50
2022-08-26T05:39:32.535Z,82.30
2022-08-26T05:42:36.535Z,81.97
2022-08-26T05:45:45.940Z,81.84
2022-08-26T05:48:49.352Z,81.67
2022-08-26T05:51:54.132Z,81.90
2022-08-26T05:54:57.737Z,81.97
2022-08-26T05:58:02.694Z,81.98
2022-08-26T06:01:14.480Z,81.83
2022-08-26T06:04:17.802Z,81.76
2022-08-26T06:07:43.424Z,81.59
2022-08-26T06:10:53.121Z,81.54
2022-08-26T06:14:03.077Z,81.49
2022-08-26T06:17:09.537Z,81.55
2022-08-26T06:20:12.813Z,81.12
2022-08-26T06:23:54.266Z,81.01
2022-08-26T06:27:01.147Z,81.11
2022-08-26T06:30:05.082Z,81.05
2022-08-26T06:33:09.870Z,80.92
2022-08-26T06:36:20.826Z,80.85
2022-08-26T06:39:24.438Z,80.73
2022-08-26T06:42:28.126Z,80.62
2022-08-26T06:45:31.067Z,80.31
2022-08-26T06:48:34.623Z,80.39
2022-08-26T06:51:40.311Z,80.15
2022-08-26T06:54:44.250Z,80.16
2022-08-26T06:57:48.018Z,80.09
2022-08-26T07:00:51.283Z,80.19
2022-08-26T07:03:57.856Z,80.07
2022-08-26T07:07:01.588Z,79.83
2022-08-26T07:10:05.919Z,79.70
2022-08-26T07:13:09.793Z,79.28
2022-08-26T07:16:16.492Z,79.57
2022-08-26T07:19:30.526Z,79.37
2022-08-26T07:22:37.328Z,78.90
2022-08-26T07:25:42.321Z,79.01
2022-08-26T07:28:48.905Z,79.14
2022-08-26T07:31:52.562Z,79.25
2022-08-26T07:34:55.937Z,79.37
2022-08-26T07:37:59.140Z,79.53
2022-08-26T07:41:02.697Z,79.58
2022-08-26T07:44:05.838Z,79.53
2022-08-26T07:47:24.899Z,79.04
2022-08-26T07:50:49.333Z,78.84
2022-08-26T07:53:53.445Z,78.39
2022-08-26T07:56:56.947Z,78.49
2022-08-26T08:00:04.273Z,78.43
2022-08-26T08:03:15.450Z,77.79
2022-08-26T08:06:27.307Z,77.56
2022-08-26T08:09:30.878Z,77.10
2022-08-26T08:12:33.877Z,77.00
2022-08-26T08:15:38.013Z,76.92
2022-08-26T08:18:41.994Z,76.92
2022-08-26T08:21:47.015Z,77.23
2022-08-26T08:24:52.875Z,77.22
2022-08-26T08:27:56.957Z,76.81
2022-08-26T08:31:00.339Z,76.43
2022-08-26T08:34:03.795Z,75.92
2022-08-26T08:37:10.187Z,74.87
2022-08-26T08:40:18.304Z,75.19
2022-08-26T08:43:40.238Z,74.67
2022-08-26T08:46:45.225Z,74.52
2022-08-26T08:49:48.245Z,74.57
2022-08-26T08:53:08.944Z,74.12
2022-08-26T08:56:24.396Z,74.20
2022-08-26T08:59:32.675Z,74.63
2022-08-26T09:02:47.948Z,74.72
2022-08-26T09:05:53.307Z,74.75
2022-08-26T09:09:00.740Z,73.52
2022-08-26T09:12:07.495Z,72.88
2022-08-26T09:15:53.075Z,72.62
2022-08-26T09:18:57.590Z,72.60
2022-08-26T09:22:04.672Z,73.41
2022-08-26T09:25:12.258Z,73.96
2022-08-26T09:28:18.908Z,74.24
2022-08-26T09:31:25.520Z,74.05
2022-08-26T09:34:30.152Z,73.06
2022-08-26T09:41:02.286Z,72.82
2022-08-26T09:44:08.390Z,72.58
2022-08-26T09:47:25.386Z,72.64
2022-08-26T09:50:51.388Z,72.02
2022-08-26T09:53:57.963Z,71.69
2022-08-26T09:57:17.601Z,71.12
2022-08-26T10:00:26.867Z,72.19
2022-08-26T10:03:36.806Z,72.35
2022-08-26T10:06:56.393Z,72.01
2022-08-26T10:10:04.613Z,72.92
2022-08-26T10:13:16.264Z,71.69
2022-08-26T10:16:23.303Z,71.46
2022-08-26T10:19:41.720Z,71.30
2022-08-26T10:23:17.062Z,72.03
2022-08-26T10:26:48.995Z,71.78
2022-08-26T10:29:57.555Z,71.96
2022-08-26T10:33:13.144Z,71.46
2022-08-26T10:36:52.301Z,71.69
2022-08-26T10:40:15.137Z,71.26
2022-08-26T10:43:25.674Z,70.70
2022-08-26T10:46:39.960Z,70.99
2022-08-26T10:49:47.856Z,71.22
2022-08-26T10:53:17.998Z,71.90
2022-08-26T10:56:40.159Z,71.39
2022-08-26T10:59:54.266Z,71.21
2022-08-26T11:03:21.633Z,70.75
2022-08-26T11:06:29.289Z,71.19
2022-08-26T11:09:47.855Z,70.85
2022-08-26T11:12:59.692Z,70.35
2022-08-26T11:16:03.190Z,68.83
2022-08-26T11:19:11.387Z,69.47
2022-08-26T11:22:31.328Z,70.25
2022-08-26T11:26:02.104Z,70.51
2022-08-26T11:29:12.331Z,70.13
2022-08-26T11:32:55.877Z,70.85
2022-08-26T11:35:59.056Z,70.57
2022-08-26T11:39:04.628Z,70.64
2022-08-26T11:42:35.870Z,70.56
2022-08-26T11:45:44.149Z,70.34
2022-08-26T11:49:30.927Z,70.38
2022-08-26T11:52:25.555Z,70.52
2022-08-26T11:55:32.269Z,70.26
2022-08-26T11:58:45.267Z,70.38
2022-08-26T12:01:57.459Z,69.71
2022-08-26T12:05:04.789Z,69.61
2022-08-26T12:08:12.272Z,70.31
2022-08-26T12:11:32.173Z,71.23
2022-08-26T12:14:39.677Z,71.61
2022-08-26T12:17:48.537Z,72.01
2022-08-26T12:21:00.676Z,72.80
2022-08-26T12:24:08.212Z,72.26
2022-08-26T12:27:34.598Z,72.32
2022-08-26T12:30:37.900Z,72.22
2022-08-26T12:33:42.649Z,72.31
2022-08-26T12:36:47.852Z,71.79
2022-08-26T12:39:51.545Z,71.50
2022-08-26T12:42:56.489Z,72.10
2022-08-26T12:46:00.677Z,71.76
2022-08-26T12:49:05.471Z,72.11
2022-08-26T12:52:32.229Z,72.66
2022-08-26T12:55:48.552Z,72.41
2022-08-26T12:59:25.333Z,72.29
2022-08-26T13:02:35.718Z,72.57
2022-08-26T13:05:40.784Z,72.75
2022-08-26T13:08:53.138Z,72.56
2022-08-26T13:11:59.696Z,72.60
2022-08-26T13:15:06.749Z,73.38
2022-08-26T13:18:10.096Z,71.89
2022-08-26T13:21:19.619Z,71.63
2022-08-26T13:24:30.896Z,71.40
2022-08-26T13:27:34.285Z,71.00
2022-08-26T13:30:37.637Z,70.73
2022-08-26T13:33:41.766Z,70.90
2022-08-26T13:36:46.206Z,70.96
2022-08-26T13:39:51.274Z,70.47
2022-08-26T13:42:54.919Z,71.59
2022-08-26T13:45:58.073Z,72.11
2022-08-26T13:49:01.565Z,71.58
2022-08-26T13:52:05.033Z,71.54
2022-08-26T13:55:09.047Z,71.59
2022-08-26T13:58:13.615Z,71.45
2022-08-26T14:01:17.658Z,71.73
2022-08-26T14:04:26.924Z,71.02
2022-08-26T14:07:31.573Z,70.71
2022-08-26T14:10:35.634Z,70.51
2022-08-26T14:13:39.405Z,70.18
2022-08-26T14:16:59.014Z,69.54
2022-08-26T14:20:04.610Z,69.19
2022-08-26T14:23:14.023Z,69.17
2022-08-26T14:26:27.767Z,68.59
2022-08-26T14:29:33.918Z,68.08
2022-08-26T14:32:40.211Z,68.26
2022-08-26T14:35:48.993Z,67.62
2022-08-26T14:38:54.673Z,67.19
2022-08-26T14:41:58.426Z,66.08
2022-08-26T14:45:05.659Z,65.68
2022-08-26T14:48:10.227Z,65.45
2022-08-26T14:51:15.114Z,66.27
2022-08-26T14:54:19.460Z,65.85
2022-08-26T14:57:22.826Z,66.05
2022-08-26T15:00:27.430Z,65.93
2022-08-26T15:03:31.464Z,66.18
2022-08-26T15:06:38.057Z,65.79
2022-08-26T15:09:44.062Z,66.17
2022-08-26T15:12:48.273Z,66.57
2022-08-26T15:15:53.493Z,66.25
2022-08-26T15:18:57.646Z,66.36
2022-08-26T15:22:02.378Z,66.22
2022-08-26T15:25:08.054Z,66.19
2022-08-26T15:28:12.925Z,65.78
2022-08-26T15:31:19.805Z,65.31
2022-08-26T15:34:24.805Z,64.89
2022-08-26T15:37:28.217Z,64.51
2022-08-26T15:40:32.895Z,64.71
2022-08-26T15:43:40.030Z,65.39
2022-08-26T15:46:47.450Z,66.29
2022-08-26T15:49:51.955Z,65.70
2022-08-26T15:52:56.686Z,64.75
2022-08-26T15:56:01.684Z,64.80
2022-08-26T15:59:09.084Z,64.74
2022-08-26T16:02:12.926Z,65.02
2022-08-26T16:05:18.116Z,65.50
2022-08-26T16:08:22.616Z,65.15
2022-08-26T16:11:26.998Z,64.52
2022-08-26T16:14:30.622Z,64.86
2022-08-26T16:17:34.544Z,64.38
2022-08-26T16:20:55.212Z,64.06
2022-08-26T16:24:12.025Z,64.70
2022-08-26T16:27:14.981Z,65.52
2022-08-26T16:30:19.638Z,65.35
2022-08-26T16:33:29.596Z,65.73
2022-08-26T16:36:34.417Z,64.10
2022-08-26T16:39:40.257Z,64.41
2022-08-26T16:42:49.111Z,64.95
2022-08-26T16:45:52.188Z,64.26
2022-08-26T16:48:57.094Z,64.73
2022-08-26T16:52:00.211Z,64.74
2022-08-26T16:55:05.775Z,64.54
2022-08-26T16:58:09.409Z,65.13
2022-08-26T17:01:13.016Z,65.90
2022-08-26T17:04:16.298Z,66.87
2022-08-26T17:07:19.663Z,67.61
2022-08-26T17:10:24.087Z,67.93
2022-08-26T17:13:34.917Z,67.46
2022-08-26T17:16:39.635Z,67.23
2022-08-26T17:19:47.048Z,66.49
2022-08-26T17:22:52.873Z,65.99
2022-08-26T17:25:56.203Z,66.00
2022-08-26T17:29:00.916Z,66.01
2022-08-26T17:32:06.268Z,66.50
2022-08-26T17:35:10.967Z,66.62
2022-08-26T17:38:16.704Z,66.97
2022-08-26T17:41:20.040Z,66.92
2022-08-26T17:44:24.761Z,69.11
2022-08-26T17:47:30.464Z,67.05
2022-08-26T17:50:34.075Z,67.52
2022-08-26T17:53:37.395Z,67.76
2022-08-26T17:56:40.535Z,67.69
2022-08-26T17:59:45.051Z,68.01
2022-08-26T18:02:50.192Z,68.22
2022-08-26T18:05:53.912Z,68.61
2022-08-26T18:08:57.700Z,68.82
2022-08-26T18:12:00.616Z,69.91
2022-08-26T18:15:04.421Z,68.74
2022-08-26T18:18:07.874Z,68.91
2022-08-26T18:21:16.906Z,69.32
2022-08-26T18:24:19.844Z,69.70
2022-08-26T18:27:22.904Z,70.17
2022-08-26T18:30:26.673Z,70.05
2022-08-26T18:33:29.884Z,70.15
2022-08-26T18:36:35.938Z,70.66
2022-08-26T18:39:38.984Z,71.06
2022-08-26T18:42:42.420Z,71.51
2022-08-26T18:45:45.602Z,71.49
2022-08-26T18:48:51.030Z,71.78
2022-08-26T18:51:54.676Z,72.25
2022-08-26T18:54:59.846Z,72.79
2022-08-26T18:58:04.041Z,72.98
2022-08-26T19:01:07.762Z,73.33
2022-08-26T19:04:15.409Z,73.57
2022-08-26T19:07:20.257Z,73.71
2022-08-26T19:10:24.815Z,74.14
2022-08-26T19:13:28.253Z,74.16
2022-08-26T19:16:31.845Z,74.33
2022-08-26T19:19:35.122Z,74.50
2022-08-26T19:22:38.397Z,74.39
2022-08-26T19:25:49.099Z,74.87
2022-08-26T19:28:54.006Z,75.35
2022-08-26T19:31:56.809Z,75.85
2022-08-26T19:35:02.135Z,76.28
2022-08-26T19:38:10.205Z,76.57
2022-08-26T19:41:15.879Z,76.68
2022-08-26T19:44:39.811Z,76.77
2022-08-26T19:47:43.059Z,76.88
2022-08-26T19:50:46.437Z,77.02
2022-08-26T19:53:52.221Z,77.22
2022-08-26T19:56:55.488Z,77.19
2022-08-26T20:00:01.007Z,77.23
2022-08-26T20:03:04.258Z,77.07
2022-08-26T20:06:10.336Z,77.15
2022-08-26T20:09:15.731Z,77.42
2022-08-26T20:12:22.067Z,76.66
2022-08-26T20:15:25.319Z,77.44
2022-08-26T20:18:50.540Z,76.57
2022-08-26T20:21:55.362Z,77.00
2022-08-26T20:25:01.073Z,81.57
2022-08-26T20:28:06.088Z,76.66
2022-08-26T20:31:10.084Z,76.89
2022-08-26T20:34:19.910Z,77.50
2022-08-26T20:37:23.797Z,77.99
2022-08-26T20:40:27.700Z,78.18
2022-08-26T20:43:31.827Z,78.39
2022-08-26T20:46:36.218Z,78.50
2022-08-26T20:49:39.432Z,78.62
2022-08-26T20:52:46.330Z,78.45
2022-08-26T20:55:51.508Z,77.74
2022-08-26T20:58:58.529Z,77.72
2022-08-26T21:02:02.330Z,78.14
2022-08-26T21:05:06.981Z,78.48
2022-08-26T21:08:11.286Z,78.77
2022-08-26T21:11:18.217Z,78.79
2022-08-26T21:14:25.925Z,78.82
2022-08-26T21:17:30.001Z,78.84
2022-08-26T21:20:33.895Z,79.06
2022-08-26T21:23:37.624Z,78.99
2022-08-26T21:26:41.039Z,79.15
2022-08-26T21:29:44.196Z,79.27
2022-08-26T21:32:51.959Z,79.41
2022-08-26T21:35:55.513Z,79.69
2022-08-26T21:39:00.755Z,79.75
2022-08-26T21:42:04.971Z,79.94
2022-08-26T21:45:09.957Z,80.14
2022-08-26T21:48:14.192Z,80.33
2022-08-26T21:51:20.409Z,80.34
2022-08-26T21:54:23.566Z,80.75
2022-08-26T21:57:28.633Z,80.78
2022-08-26T22:00:31.721Z,81.09
2022-08-26T22:03:35.167Z,81.11
2022-08-26T22:06:53.847Z,80.80
2022-08-26T22:09:56.918Z,80.49
2022-08-26T22:13:00.119Z,80.50
2022-08-26T22:16:04.468Z,80.50
2022-08-26T22:19:07.803Z,80.69
2022-08-26T22:22:15.593Z,80.79
2022-08-26T22:25:18.773Z,80.79
2022-08-26T22:28:22.467Z,80.58
2022-08-26T22:31:35.258Z,80.28
2022-08-26T22:34:42.078Z,80.38
2022-08-26T22:37:45.054Z,80.38
2022-08-26T22:40:50.910Z,80.31
2022-08-26T22:43:54.540Z,80.39
2022-08-26T22:46:57.796Z,80.36
2022-08-26T22:50:01.146Z,80.55
2022-08-26T22:53:04.473Z,80.66
2022-08-26T22:56:08.588Z,80.59
2022-08-26T22:59:12.833Z,80.61
2022-08-26T23:02:15.770Z,80.54
2022-08-26T23:05:19.089Z,80.68
2022-08-26T23:08:23.044Z,80.75
2022-08-26T23:11:26.387Z,81.01
2022-08-26T23:14:29.457Z,81.39
2022-08-26T23:17:32.704Z,81.37
2022-08-26T23:20:37.785Z,81.35
2022-08-26T23:23:41.748Z,81.20
2022-08-26T23:26:45.360Z,81.05
2022-08-26T23:29:48.559Z,81.22
2022-08-26T23:32:51.929Z,81.34
2022-08-26T23:35:55.370Z,81.56
2022-08-26T23:38:58.305Z,81.53
2022-08-26T23:42:01.824Z,81.57
2022-08-26T23:45:09.615Z,81.59
2022-08-26T23:48:12.580Z,81.59
2022-08-26T23:51:33.837Z,81.71
2022-08-26T23:54:38.164Z,81.76
2022-08-26T23:57:41.694Z,81.83
